Time;durP1;ratioP1;P1;durP2;ratioP2;P2;SDS_P1;SDS_P2;PMS_P1;PMS_P2;Temp;Humidity;BMP_temperature;BMP_pressure;BME280_temperature;BME280_humidity;BME280_pressure;Samples;Min_cycle;Max_cycle;Signal;HPM_P1;HPM_P2
2022/01/12 00:00:27;;;;;;;14.15;11.30;;;;;;;;;;5050864;28;20091;-58
2022/01/12 00:02:54;;;;;;;15.15;11.43;;;;;;;;;;5050549;28;20052;-57
2022/01/12 00:05:20;;;;;;;14.27;11.25;;;;;;;;;;5050144;28;20102;-58
2022/01/12 00:07:48;;;;;;;15.63;11.25;;;;;;;;;;5050707;28;20472;-58
2022/01/12 00:10:14;;;;;;;15.38;10.80;;;;;;;;;;5050971;28;20132;-57
2022/01/12 00:12:40;;;;;;;16.45;11.63;;;;;;;;;;5050368;28;20053;-58
2022/01/12 00:15:08;;;;;;;13.30;10.43;;;;;;;;;;5050670;28;20049;-58
2022/01/12 00:17:35;;;;;;;15.20;10.98;;;;;;;;;;5050933;28;20041;-58
2022/01/12 00:20:01;;;;;;;14.00;10.32;;;;;;;;;;5050075;28;20049;-58
2022/01/12 00:22:28;;;;;;;14.20;10.95;;;;;;;;;;5050917;28;20057;-57
2022/01/12 00:25:12;;;;;;;15.25;10.93;;;;;;;;;;5050601;28;20044;-58
2022/01/12 00:33:10;;;;;;;13.48;11.23;;;;;;;;;;5050164;28;20137;-58
2022/01/12 00:35:36;;;;;;;15.02;10.63;;;;;;;;;;5050697;28;20052;-57
2022/01/12 00:38:02;;;;;;;14.25;11.40;;;;;;;;;;5050562;28;20056;-58
2022/01/12 00:40:29;;;;;;;14.88;10.60;;;;;;;;;;5049760;28;20055;-58
2022/01/12 00:42:55;;;;;;;13.27;10.20;;;;;;;;;;5050513;28;20053;-58
2022/01/12 00:45:21;;;;;;;15.38;11.63;;;;;;;;;;5050703;28;20191;-58
2022/01/12 00:47:49;;;;;;;15.63;11.38;;;;;;;;;;5049588;28;20480;-58
2022/01/12 00:50:15;;;;;;;13.88;11.15;;;;;;;;;;5050549;28;20095;-58
2022/01/12 00:52:41;;;;;;;12.75;10.23;;;;;;;;;;5050604;28;20083;-58
2022/01/12 00:55:08;;;;;;;13.88;10.90;;;;;;;;;;5049775;28;20114;-58
2022/01/12 00:57:34;;;;;;;16.38;11.90;;;;;;;;;;5050627;28;20053;-58
2022/01/12 01:00:00;;;;;;;15.20;11.75;;;;;;;;;;5050371;28;20045;-58
2022/01/12 01:02:26;;;;;;;15.05;11.90;;;;;;;;;;5049716;28;20099;-58
2022/01/12 01:04:54;;;;;;;16.88;11.07;;;;;;;;;;5050152;28;20048;-58
2022/01/12 01:07:20;;;;;;;14.07;11.18;;;;;;;;;;5050354;28;20049;-57
2022/01/12 01:09:55;;;;;;;15.85;11.50;;;;;;;;;;5049409;28;20458;-57
2022/01/12 01:12:23;;;;;;;16.65;12.38;;;;;;;;;;5050323;28;20506;-58
2022/01/12 01:15:01;;;;;;;16.08;12.05;;;;;;;;;;5050458;28;20896;-58
2022/01/12 01:25:43;;;;;;;15.57;11.77;;;;;;;;;;5053748;28;20068;-58
2022/01/12 01:28:10;;;;;;;13.23;11.65;;;;;;;;;;5053714;28;20040;-58
2022/01/12 01:30:37;;;;;;;15.25;12.07;;;;;;;;;;5053071;28;20486;-58
2022/01/12 01:33:06;;;;;;;14.70;11.70;;;;;;;;;;5053471;28;20107;-58
2022/01/12 01:35:34;;;;;;;14.18;11.55;;;;;;;;;;5053784;28;20044;-58
2022/01/12 01:38:01;;;;;;;15.40;11.70;;;;;;;;;;5053266;28;20049;-58
2022/01/12 01:40:28;;;;;;;16.50;12.35;;;;;;;;;;5053533;28;20049;-58
2022/01/12 01:43:09;;;;;;;14.88;12.15;;;;;;;;;;5052291;28;20052;-58
2022/01/12 01:53:50;;;;;;;15.17;12.60;;;;;;;;;;5053269;28;20103;-58
2022/01/12 01:56:18;;;;;;;17.52;12.68;;;;;;;;;;5053409;28;20140;-58
2022/01/12 01:58:45;;;;;;;16.08;12.40;;;;;;;;;;5052084;28;20492;-57
2022/01/12 02:01:11;;;;;;;15.02;12.38;;;;;;;;;;5053123;28;20123;-58
2022/01/12 02:03:37;;;;;;;14.85;11.90;;;;;;;;;;5052943;28;20052;-58
2022/01/12 02:06:05;;;;;;;16.42;12.80;;;;;;;;;;5051980;28;20515;-57
2022/01/12 02:08:34;;;;;;;15.55;12.73;;;;;;;;;;5053203;28;20044;-58
2022/01/12 02:11:00;;;;;;;15.55;12.85;;;;;;;;;;5052406;28;20045;-58
2022/01/12 02:13:26;;;;;;;17.15;13.23;;;;;;;;;;5052734;28;20560;-57
2022/01/12 02:15:54;;;;;;;16.30;11.82;;;;;;;;;;5052691;28;20049;-58
2022/01/12 02:18:34;;;;;;;15.20;12.88;;;;;;;;;;5051956;28;20047;-57
2022/01/12 02:40:17;;;;;;;17.30;13.35;;;;;;;;;;5051743;28;20155;-57
2022/01/12 02:42:48;;;;;;;17.48;13.27;;;;;;;;;;5052056;28;20095;-58
2022/01/12 02:50:53;;;;;;;16.75;13.50;;;;;;;;;;5052238;28;20060;-57
2022/01/12 02:53:40;;;;;;;18.35;14.27;;;;;;;;;;5051477;28;20040;-57
2022/01/12 02:56:07;;;;;;;17.10;13.98;;;;;;;;;;5051993;28;20060;-58
2022/01/12 02:58:33;;;;;;;19.10;14.98;;;;;;;;;;5052231;28;20106;-57
2022/01/12 03:01:19;;;;;;;17.00;13.63;;;;;;;;;;5051082;28;20052;-57
2022/01/12 03:03:48;;;;;;;19.30;14.80;;;;;;;;;;5051549;28;20055;-57
2022/01/12 03:06:17;;;;;;;17.30;13.85;;;;;;;;;;5051721;28;20454;-57
2022/01/12 03:08:45;;;;;;;18.98;14.73;;;;;;;;;;5050990;28;20049;-57
2022/01/12 03:11:12;;;;;;;20.85;15.05;;;;;;;;;;5052008;28;20045;-57
2022/01/12 03:13:39;;;;;;;19.42;14.18;;;;;;;;;;5051837;28;20049;-58
2022/01/12 03:16:12;;;;;;;17.83;13.73;;;;;;;;;;5050782;28;20499;-57
2022/01/12 03:18:39;;;;;;;19.05;14.02;;;;;;;;;;5051742;28;20045;-58
2022/01/12 03:21:06;;;;;;;18.17;14.27;;;;;;;;;;5050673;28;20482;-58
2022/01/12 03:23:32;;;;;;;18.77;14.38;;;;;;;;;;5051668;28;20106;-58
2022/01/12 03:26:00;;;;;;;19.70;14.25;;;;;;;;;;5051702;28;20553;-58
2022/01/12 03:28:27;;;;;;;18.35;14.63;;;;;;;;;;5050641;28;20049;-57
2022/01/12 03:30:58;;;;;;;18.83;14.30;;;;;;;;;;5051329;28;20136;-58
2022/01/12 03:33:39;;;;;;;18.73;14.40;;;;;;;;;;5031369;28;20136;-58
2022/01/12 03:36:27;;;;;;;17.95;13.88;;;;;;;;;;5030734;28;20136;-58
2022/01/12 03:38:54;;;;;;;18.50;14.00;;;;;;;;;;5030816;28;20049;-58
2022/01/12 03:41:22;;;;;;;20.40;14.70;;;;;;;;;;5031516;28;20120;-57
2022/01/12 03:43:48;;;;;;;20.73;14.65;;;;;;;;;;5030179;28;20049;-57
2022/01/12 03:46:16;;;;;;;18.83;14.82;;;;;;;;;;5031550;28;20050;-57
2022/01/12 03:48:43;;;;;;;18.95;14.80;;;;;;;;;;5031114;28;20049;-57
2022/01/12 03:51:09;;;;;;;19.17;15.35;;;;;;;;;;5030686;28;20041;-57
2022/01/12 03:53:35;;;;;;;17.60;14.50;;;;;;;;;;5031124;28;20487;-58
2022/01/12 03:56:02;;;;;;;19.58;14.52;;;;;;;;;;5031051;28;20054;-58
2022/01/12 03:58:29;;;;;;;19.30;15.32;;;;;;;;;;5030360;28;20103;-58
2022/01/12 04:00:55;;;;;;;18.90;14.80;;;;;;;;;;5046506;28;20053;-58
2022/01/12 04:03:21;;;;;;;20.23;14.68;;;;;;;;;;5050272;28;20091;-57
2022/01/12 04:08:32;;;;;;;19.27;14.73;;;;;;;;;;5051057;28;20140;-57
2022/01/12 04:11:00;;;;;;;19.33;15.07;;;;;;;;;;5049644;28;20041;-58
2022/01/12 04:13:28;;;;;;;19.83;15.30;;;;;;;;;;5050849;28;20133;-57
2022/01/12 04:15:56;;;;;;;20.27;14.77;;;;;;;;;;5050810;28;20048;-57
2022/01/12 04:18:23;;;;;;;20.33;15.10;;;;;;;;;;5050168;28;20114;-57
2022/01/12 04:20:50;;;;;;;19.08;14.20;;;;;;;;;;5050602;28;20480;-57
2022/01/12 04:23:18;;;;;;;20.08;15.43;;;;;;;;;;5050498;28;20484;-57
2022/01/12 04:25:44;;;;;;;21.60;15.32;;;;;;;;;;5050062;28;20466;-57
2022/01/12 04:28:11;;;;;;;19.02;14.88;;;;;;;;;;5050861;28;20045;-58
2022/01/12 04:30:37;;;;;;;19.70;14.77;;;;;;;;;;5050998;28;20103;-58
2022/01/12 04:33:05;;;;;;;18.73;14.73;;;;;;;;;;5049829;28;20095;-58
2022/01/12 04:35:34;;;;;;;20.67;15.45;;;;;;;;;;5050779;28;20455;-58
2022/01/12 04:38:00;;;;;;;20.42;15.25;;;;;;;;;;5050369;28;20493;-58
2022/01/12 04:40:27;;;;;;;19.75;15.35;;;;;;;;;;5049969;28;20455;-58
2022/01/12 04:42:54;;;;;;;17.90;14.75;;;;;;;;;;5050569;28;20041;-58
2022/01/12 04:45:36;;;;;;;18.75;14.55;;;;;;;;;;5050610;28;20055;-58
2022/01/12 04:48:09;;;;;;;18.13;14.55;;;;;;;;;;5050505;28;20077;-58
2022/01/12 04:50:37;;;;;;;18.20;14.23;;;;;;;;;;5052835;28;20041;-58
2022/01/12 04:53:04;;;;;;;19.65;14.25;;;;;;;;;;5053701;28;20044;-58
2022/01/12 04:55:30;;;;;;;20.42;15.93;;;;;;;;;;5054508;28;20049;-58
2022/01/12 04:57:57;;;;;;;18.40;13.98;;;;;;;;;;5054076;28;20484;-58
2022/01/12 05:00:25;;;;;;;18.75;14.80;;;;;;;;;;5053468;28;20127;-58
2022/01/12 05:08:34;;;;;;;18.33;14.77;;;;;;;;;;5053669;28;20090;-57
2022/01/12 05:13:47;;;;;;;19.02;14.88;;;;;;;;;;5053235;28;20060;-58
2022/01/12 05:16:14;;;;;;;19.95;15.10;;;;;;;;;;5054132;28;20045;-58
2022/01/12 05:18:41;;;;;;;17.70;14.38;;;;;;;;;;5054012;28;20633;-58
2022/01/12 05:21:09;;;;;;;17.33;13.93;;;;;;;;;;5053155;28;20041;-58
2022/01/12 05:23:36;;;;;;;21.33;15.45;;;;;;;;;;5053864;28;20048;-58
2022/01/12 05:26:02;;;;;;;20.13;14.13;;;;;;;;;;5053435;28;20106;-58
2022/01/12 05:28:29;;;;;;;18.02;13.80;;;;;;;;;;5053215;28;20111;-58
2022/01/12 05:30:56;;;;;;;19.13;14.15;;;;;;;;;;5053586;28;20049;-58
2022/01/12 05:33:24;;;;;;;19.88;15.30;;;;;;;;;;5053774;28;20147;-58
2022/01/12 05:35:50;;;;;;;19.65;14.45;;;;;;;;;;5052693;28;20047;-58
2022/01/12 05:38:20;;;;;;;20.88;14.90;;;;;;;;;;5053768;28;20056;-58
2022/01/12 05:40:47;;;;;;;19.85;14.88;;;;;;;;;;5053462;28;20049;-58
2022/01/12 05:43:14;;;;;;;19.85;14.95;;;;;;;;;;5052953;28;20044;-59
2022/01/12 05:45:44;;;;;;;19.73;14.45;;;;;;;;;;5053618;28;20404;-58
2022/01/12 05:50:54;;;;;;;21.13;14.95;;;;;;;;;;5052373;28;20060;-58
2022/01/12 05:53:21;;;;;;;20.15;15.15;;;;;;;;;;5053589;28;20049;-58
2022/01/12 05:55:48;;;;;;;20.77;16.08;;;;;;;;;;5052533;28;20492;-58
2022/01/12 05:58:14;;;;;;;21.88;15.90;;;;;;;;;;5053204;28;20045;-59
2022/01/12 06:00:40;;;;;;;21.25;15.65;;;;;;;;;;5052824;28;20045;-58
2022/01/12 06:03:06;;;;;;;21.05;14.70;;;;;;;;;;5052158;28;20049;-59
2022/01/12 06:05:33;;;;;;;22.25;15.68;;;;;;;;;;5052784;28;20060;-58
2022/01/12 06:07:59;;;;;;;21.77;15.90;;;;;;;;;;5052408;28;20099;-58
2022/01/12 06:10:28;;;;;;;22.17;15.93;;;;;;;;;;5052256;28;20045;-58
2022/01/12 06:12:54;;;;;;;21.30;15.55;;;;;;;;;;5052737;28;20056;-58
2022/01/12 06:15:20;;;;;;;21.58;15.73;;;;;;;;;;5052692;28;20123;-58
2022/01/12 06:17:47;;;;;;;23.23;15.70;;;;;;;;;;5051765;28;20044;-57
2022/01/12 06:20:13;;;;;;;21.23;15.32;;;;;;;;;;5052601;28;20135;-57
2022/01/12 06:22:40;;;;;;;23.55;16.58;;;;;;;;;;5052818;28;20045;-57
2022/01/12 06:25:09;;;;;;;20.08;15.32;;;;;;;;;;5051697;28;20057;-57
2022/01/12 06:27:37;;;;;;;22.08;15.82;;;;;;;;;;5052619;28;20048;-57
2022/01/12 06:30:15;;;;;;;22.50;15.20;;;;;;;;;;5052133;28;20052;-57
2022/01/12 06:32:41;;;;;;;22.33;15.40;;;;;;;;;;5051774;28;20049;-58
2022/01/12 06:35:08;;;;;;;19.67;14.23;;;;;;;;;;5052645;28;20049;-58
2022/01/12 06:37:34;;;;;;;20.80;14.52;;;;;;;;;;5052917;28;20045;-59
2022/01/12 06:40:00;;;;;;;22.98;14.63;;;;;;;;;;5051488;28;20041;-59
2022/01/12 06:42:27;;;;;;;20.92;14.55;;;;;;;;;;5052394;28;20585;-57
2022/01/12 06:44:54;;;;;;;21.52;14.90;;;;;;;;;;5051861;28;20049;-58
2022/01/12 06:47:20;;;;;;;23.85;15.00;;;;;;;;;;5051287;28;20045;-58
2022/01/12 06:49:47;;;;;;;22.35;15.35;;;;;;;;;;5052137;28;20094;-58
2022/01/12 06:52:13;;;;;;;20.48;14.95;;;;;;;;;;5051425;28;20041;-57
2022/01/12 06:54:39;;;;;;;22.17;15.43;;;;;;;;;;5052365;28;20478;-58
2022/01/12 06:57:06;;;;;;;22.25;14.40;;;;;;;;;;5051731;28;20045;-58
2022/01/12 06:59:32;;;;;;;21.55;15.63;;;;;;;;;;5047393;28;20091;-57
2022/01/12 07:01:59;;;;;;;22.35;15.75;;;;;;;;;;5051759;28;20067;-58
2022/01/12 07:04:26;;;;;;;20.58;14.90;;;;;;;;;;5051433;28;20499;-59
2022/01/12 07:06:52;;;;;;;22.88;15.70;;;;;;;;;;5050824;28;20049;-59
2022/01/12 07:09:18;;;;;;;19.92;13.57;;;;;;;;;;5051705;28;20040;-58
2022/01/12 07:11:44;;;;;;;21.75;14.55;;;;;;;;;;5051053;28;20053;-58
2022/01/12 07:14:11;;;;;;;21.58;14.20;;;;;;;;;;5049838;28;20049;-58
2022/01/12 07:16:37;;;;;;;23.70;14.73;;;;;;;;;;5051755;28;20040;-58
2022/01/12 07:19:04;;;;;;;23.08;14.32;;;;;;;;;;5051405;28;20049;-58
2022/01/12 07:21:31;;;;;;;23.70;14.95;;;;;;;;;;5050750;28;20045;-58
2022/01/12 07:23:57;;;;;;;23.65;14.70;;;;;;;;;;5051265;28;20123;-57
2022/01/12 07:26:23;;;;;;;22.45;14.68;;;;;;;;;;5051180;28;20451;-58
2022/01/12 07:28:50;;;;;;;20.92;14.07;;;;;;;;;;5049334;28;20049;-58
2022/01/12 07:31:16;;;;;;;20.67;14.15;;;;;;;;;;5051332;28;20045;-58
2022/01/12 07:33:43;;;;;;;21.85;14.35;;;;;;;;;;5051289;28;20105;-57
2022/01/12 07:36:10;;;;;;;21.80;14.30;;;;;;;;;;5050526;28;20095;-58
2022/01/12 07:38:37;;;;;;;20.35;14.05;;;;;;;;;;5051544;28;20041;-57
2022/01/12 07:41:03;;;;;;;24.38;14.95;;;;;;;;;;5051071;28;20056;-58
2022/01/12 07:43:29;;;;;;;23.20;14.98;;;;;;;;;;5050355;28;20099;-58
2022/01/12 07:45:55;;;;;;;22.75;15.93;;;;;;;;;;5051018;28;20433;-58
2022/01/12 07:48:21;;;;;;;23.75;15.18;;;;;;;;;;5050174;28;20103;-57
2022/01/12 07:50:48;;;;;;;24.85;15.55;;;;;;;;;;5050554;28;20052;-57
2022/01/12 07:53:15;;;;;;;23.88;15.52;;;;;;;;;;5051406;28;20489;-57
2022/01/12 07:55:41;;;;;;;26.13;16.83;;;;;;;;;;5050553;28;20048;-58
2022/01/12 07:58:07;;;;;;;22.35;15.10;;;;;;;;;;5051384;28;20106;-57
2022/01/12 08:00:35;;;;;;;22.95;14.75;;;;;;;;;;5051368;28;20044;-57
2022/01/12 08:03:01;;;;;;;22.13;15.07;;;;;;;;;;5050108;28;20309;-57
2022/01/12 08:05:27;;;;;;;21.83;14.93;;;;;;;;;;5050542;28;20094;-57
2022/01/12 08:07:55;;;;;;;25.70;16.30;;;;;;;;;;5051219;28;20041;-57
2022/01/12 08:10:22;;;;;;;23.92;15.23;;;;;;;;;;5050499;28;20045;-57
2022/01/12 08:12:49;;;;;;;24.08;15.93;;;;;;;;;;5050949;28;20048;-57
2022/01/12 08:15:15;;;;;;;22.58;15.65;;;;;;;;;;5051324;28;20048;-57
2022/01/12 08:17:41;;;;;;;22.63;15.55;;;;;;;;;;5049960;28;20049;-57
2022/01/12 08:20:10;;;;;;;25.63;16.67;;;;;;;;;;5050725;28;20041;-57
2022/01/12 08:22:37;;;;;;;22.73;14.85;;;;;;;;;;5050431;28;20052;-57
2022/01/12 08:25:03;;;;;;;22.50;14.95;;;;;;;;;;5053223;28;20106;-57
2022/01/12 08:27:31;;;;;;;22.85;15.57;;;;;;;;;;5054975;28;20510;-57
2022/01/12 08:30:00;;;;;;;23.48;15.25;;;;;;;;;;5055018;28;20102;-58
2022/01/12 08:32:27;;;;;;;23.83;15.13;;;;;;;;;;5054120;28;20488;-57
2022/01/12 08:34:53;;;;;;;24.50;15.02;;;;;;;;;;5054354;28;20545;-57
2022/01/12 08:37:19;;;;;;;21.83;15.73;;;;;;;;;;5054839;28;20095;-58
2022/01/12 08:39:45;;;;;;;24.90;15.27;;;;;;;;;;5053815;28;20413;-58
2022/01/12 08:42:12;;;;;;;20.95;14.48;;;;;;;;;;5055020;28;20483;-57
2022/01/12 08:44:39;;;;;;;21.77;14.65;;;;;;;;;;5054125;28;20114;-58
2022/01/12 08:47:06;;;;;;;21.95;14.73;;;;;;;;;;5054437;28;20095;-57
2022/01/12 08:49:32;;;;;;;23.60;15.23;;;;;;;;;;5055237;28;20049;-58
2022/01/12 08:51:58;;;;;;;22.65;14.25;;;;;;;;;;5053439;28;20052;-57
2022/01/12 08:54:24;;;;;;;21.67;14.98;;;;;;;;;;5054662;28;20049;-57
2022/01/12 08:56:50;;;;;;;20.88;14.45;;;;;;;;;;5054354;28;20161;-57
2022/01/12 08:59:17;;;;;;;21.08;14.80;;;;;;;;;;5054062;28;20091;-58
2022/01/12 09:01:45;;;;;;;25.23;14.77;;;;;;;;;;5054206;28;20091;-58
2022/01/12 09:04:11;;;;;;;21.92;14.07;;;;;;;;;;5054392;28;20098;-58
2022/01/12 09:06:38;;;;;;;21.63;14.32;;;;;;;;;;5053707;28;20049;-58
2022/01/12 09:09:04;;;;;;;23.48;14.77;;;;;;;;;;5054031;28;20053;-58
2022/01/12 09:11:30;;;;;;;23.92;14.10;;;;;;;;;;5054363;28;20041;-57
2022/01/12 09:13:56;;;;;;;25.08;15.07;;;;;;;;;;5053053;28;20045;-58
2022/01/12 09:16:22;;;;;;;24.30;15.48;;;;;;;;;;5054419;28;20087;-58
2022/01/12 09:18:50;;;;;;;23.50;14.75;;;;;;;;;;5053766;28;20049;-58
2022/01/12 09:21:16;;;;;;;23.63;14.63;;;;;;;;;;5053272;28;20041;-58
2022/01/12 09:23:44;;;;;;;23.17;14.50;;;;;;;;;;5054022;28;20122;-58
2022/01/12 09:26:11;;;;;;;22.30;14.82;;;;;;;;;;5054046;28;20488;-59
2022/01/12 09:28:37;;;;;;;25.65;14.95;;;;;;;;;;5053179;28;20533;-59
2022/01/12 09:31:03;;;;;;;26.50;15.82;;;;;;;;;;5053774;28;20048;-58
2022/01/12 09:33:29;;;;;;;24.08;15.18;;;;;;;;;;5053894;28;20390;-58
2022/01/12 09:35:57;;;;;;;25.15;14.85;;;;;;;;;;5051949;28;20049;-58
2022/01/12 09:38:23;;;;;;;23.52;14.45;;;;;;;;;;5053921;28;20080;-58
2022/01/12 09:40:52;;;;;;;21.50;14.27;;;;;;;;;;5053610;28;20102;-58
2022/01/12 09:43:18;;;;;;;23.50;14.63;;;;;;;;;;5053379;28;20037;-58
2022/01/12 09:45:49;;;;;;;23.48;14.85;;;;;;;;;;5053245;28;20052;-58
2022/01/12 09:48:15;;;;;;;23.75;14.85;;;;;;;;;;5052644;28;20075;-58
2022/01/12 09:50:41;;;;;;;25.02;14.95;;;;;;;;;;5053893;28;20088;-58
2022/01/12 09:53:09;;;;;;;23.88;15.35;;;;;;;;;;5053109;28;20057;-58
2022/01/12 09:55:35;;;;;;;23.60;15.07;;;;;;;;;;5052991;28;20045;-58
2022/01/12 09:58:02;;;;;;;23.35;14.55;;;;;;;;;;5053071;28;20100;-58
2022/01/12 10:00:29;;;;;;;24.23;14.35;;;;;;;;;;5053424;28;20455;-58
2022/01/12 10:02:56;;;;;;;24.08;15.30;;;;;;;;;;5052239;28;20057;-58
2022/01/12 10:05:29;;;;;;;25.10;14.93;;;;;;;;;;5053179;28;20056;-58
2022/01/12 10:07:55;;;;;;;27.98;15.50;;;;;;;;;;5053129;28;20099;-58
2022/01/12 10:10:22;;;;;;;25.30;14.40;;;;;;;;;;5052629;28;20049;-58
2022/01/12 10:12:52;;;;;;;23.42;14.73;;;;;;;;;;5052974;28;20075;-58
2022/01/12 10:15:18;;;;;;;22.02;13.98;;;;;;;;;;5053040;28;20110;-58
2022/01/12 10:17:45;;;;;;;24.90;14.88;;;;;;;;;;5051929;28;20469;-58
2022/01/12 10:20:13;;;;;;;25.90;15.02;;;;;;;;;;5053243;28;20091;-58
2022/01/12 10:22:40;;;;;;;20.95;13.23;;;;;;;;;;5053276;28;20045;-58
2022/01/12 10:25:14;;;;;;;24.73;14.13;;;;;;;;;;5051824;28;20045;-58
2022/01/12 10:27:41;;;;;;;21.80;13.50;;;;;;;;;;5053162;28;20056;-59
2022/01/12 10:30:08;;;;;;;24.45;14.02;;;;;;;;;;5051981;28;20049;-59
2022/01/12 10:32:35;;;;;;;20.75;13.52;;;;;;;;;;5053027;28;20446;-58
2022/01/12 10:35:01;;;;;;;25.30;14.23;;;;;;;;;;5052561;28;20053;-59
2022/01/12 10:37:27;;;;;;;21.67;13.18;;;;;;;;;;5051634;28;20570;-60
2022/01/12 10:39:55;;;;;;;21.23;13.75;;;;;;;;;;5052364;28;20044;-58
2022/01/12 10:42:22;;;;;;;21.55;14.20;;;;;;;;;;5052635;28;20045;-59
2022/01/12 10:44:50;;;;;;;21.40;12.80;;;;;;;;;;5051378;28;20094;-58
2022/01/12 10:47:17;;;;;;;22.20;14.07;;;;;;;;;;5051338;28;20577;-58
2022/01/12 10:49:46;;;;;;;24.85;14.55;;;;;;;;;;5051834;28;20140;-59
2022/01/12 10:52:13;;;;;;;21.48;13.38;;;;;;;;;;5051863;28;20411;-58
2022/01/12 10:54:46;;;;;;;21.13;13.27;;;;;;;;;;5052255;28;20045;-59
2022/01/12 10:57:13;;;;;;;24.17;13.52;;;;;;;;;;5052309;28;20045;-59
2022/01/12 10:59:40;;;;;;;22.63;13.50;;;;;;;;;;5051379;28;20557;-59
2022/01/12 11:02:07;;;;;;;24.65;14.02;;;;;;;;;;5052076;28;20420;-59
2022/01/12 11:04:35;;;;;;;21.95;13.52;;;;;;;;;;5052111;28;20049;-59
2022/01/12 11:07:02;;;;;;;22.75;13.95;;;;;;;;;;5051115;28;20061;-58
2022/01/12 11:09:28;;;;;;;19.92;12.85;;;;;;;;;;5052007;28;20053;-59
2022/01/12 11:11:57;;;;;;;22.05;13.85;;;;;;;;;;5051691;28;20049;-59
2022/01/12 11:14:23;;;;;;;23.02;13.25;;;;;;;;;;5051254;28;20122;-58
2022/01/12 11:16:50;;;;;;;24.73;14.45;;;;;;;;;;5051790;28;20048;-58
2022/01/12 11:19:18;;;;;;;23.17;13.05;;;;;;;;;;5052298;28;20049;-58
2022/01/12 11:21:49;;;;;;;28.00;15.27;;;;;;;;;;5051243;28;20435;-58
2022/01/12 11:24:17;;;;;;;22.40;13.57;;;;;;;;;;5051903;28;20045;-58
2022/01/12 11:26:48;;;;;;;24.48;13.48;;;;;;;;;;5050658;28;20122;-58
2022/01/12 11:29:14;;;;;;;25.23;14.45;;;;;;;;;;5051992;28;20099;-59
2022/01/12 11:31:40;;;;;;;25.33;15.48;;;;;;;;;;5051706;28;20045;-59
2022/01/12 11:34:16;;;;;;;23.52;14.32;;;;;;;;;;5050724;28;20049;-58
2022/01/12 11:36:44;;;;;;;23.98;14.73;;;;;;;;;;5051248;28;20091;-58
2022/01/12 11:39:11;;;;;;;24.13;14.70;;;;;;;;;;5051896;28;20041;-59
2022/01/12 11:41:38;;;;;;;22.88;14.82;;;;;;;;;;5050629;28;20045;-59
2022/01/12 11:44:06;;;;;;;24.55;14.50;;;;;;;;;;5051374;28;20098;-60
2022/01/12 11:46:41;;;;;;;26.40;14.93;;;;;;;;;;5051379;28;20143;-59
2022/01/12 11:49:07;;;;;;;23.83;14.35;;;;;;;;;;5050601;28;20049;-58
2022/01/12 11:51:34;;;;;;;24.60;13.98;;;;;;;;;;5051241;28;20048;-58
2022/01/12 11:54:07;;;;;;;25.33;15.05;;;;;;;;;;5051289;28;20107;-58
2022/01/12 11:56:33;;;;;;;25.33;13.35;;;;;;;;;;5050531;28;20052;-58
2022/01/12 11:59:06;;;;;;;24.35;13.88;;;;;;;;;;5050878;28;20049;-58
2022/01/12 12:01:43;;;;;;;24.85;14.52;;;;;;;;;;5030861;28;20053;-58
2022/01/12 12:04:10;;;;;;;23.95;13.27;;;;;;;;;;5031499;28;20140;-58
2022/01/12 12:06:37;;;;;;;25.00;13.98;;;;;;;;;;5031364;28;20045;-58
2022/01/12 12:09:05;;;;;;;23.00;14.40;;;;;;;;;;5030422;28;20056;-58
2022/01/12 12:11:32;;;;;;;25.15;14.18;;;;;;;;;;5031337;28;20049;-58
2022/01/12 12:14:03;;;;;;;21.70;12.77;;;;;;;;;;5031058;28;20484;-58
2022/01/12 12:16:29;;;;;;;22.58;13.50;;;;;;;;;;5030615;28;20099;-58
2022/01/12 12:18:56;;;;;;;24.13;13.82;;;;;;;;;;5030819;28;20045;-58
2022/01/12 12:21:22;;;;;;;20.92;12.55;;;;;;;;;;5031332;28;20057;-58
2022/01/12 12:23:48;;;;;;;25.45;13.38;;;;;;;;;;5030343;28;20119;-58
2022/01/12 12:26:16;;;;;;;21.73;12.40;;;;;;;;;;5030996;28;20526;-58
2022/01/12 12:28:47;;;;;;;22.08;13.18;;;;;;;;;;5030857;28;20045;-58
2022/01/12 12:31:20;;;;;;;23.55;13.38;;;;;;;;;;5032454;28;20045;-58
2022/01/12 12:33:46;;;;;;;23.50;13.25;;;;;;;;;;5050875;28;20459;-58
2022/01/12 12:36:14;;;;;;;20.17;12.57;;;;;;;;;;5051013;28;20106;-58
2022/01/12 12:38:40;;;;;;;18.52;11.77;;;;;;;;;;5050485;28;20045;-58
2022/01/12 12:41:07;;;;;;;19.90;12.32;;;;;;;;;;5050563;28;20057;-58
2022/01/12 12:43:35;;;;;;;22.33;12.88;;;;;;;;;;5050996;28;20095;-58
2022/01/12 12:46:05;;;;;;;19.55;11.52;;;;;;;;;;5049922;28;20080;-58
2022/01/12 12:48:32;;;;;;;21.05;12.30;;;;;;;;;;5051305;28;20137;-58
2022/01/12 12:51:00;;;;;;;21.77;13.52;;;;;;;;;;5049629;28;20049;-58
2022/01/12 12:53:27;;;;;;;22.67;12.40;;;;;;;;;;5050771;28;20106;-58
2022/01/12 12:55:53;;;;;;;24.75;13.35;;;;;;;;;;5050368;28;20045;-58
2022/01/12 12:58:19;;;;;;;20.98;11.95;;;;;;;;;;5049871;28;20102;-59
2022/01/12 13:00:47;;;;;;;21.67;12.82;;;;;;;;;;5050532;28;20051;-58
2022/01/12 13:03:13;;;;;;;24.08;13.85;;;;;;;;;;5050661;28;20680;-58
2022/01/12 13:05:41;;;;;;;22.40;12.70;;;;;;;;;;5049827;28;20053;-58
2022/01/12 13:08:08;;;;;;;21.67;13.18;;;;;;;;;;5050482;28;20551;-58
2022/01/12 13:10:34;;;;;;;22.95;12.68;;;;;;;;;;5051343;28;20128;-58
2022/01/12 13:13:01;;;;;;;19.80;11.88;;;;;;;;;;5053396;28;20098;-58
2022/01/12 13:15:28;;;;;;;23.88;12.40;;;;;;;;;;5054750;28;20045;-58
2022/01/12 13:18:00;;;;;;;21.35;12.40;;;;;;;;;;5053747;28;20052;-58
2022/01/12 13:23:11;;;;;;;20.15;12.50;;;;;;;;;;5054252;28;20194;-57
2022/01/12 13:25:38;;;;;;;20.75;12.30;;;;;;;;;;5054398;28;20098;-58
2022/01/12 13:28:05;;;;;;;20.38;12.63;;;;;;;;;;5052931;28;20048;-57
2022/01/12 13:30:33;;;;;;;22.33;11.63;;;;;;;;;;5054371;28;20049;-57
2022/01/12 13:33:01;;;;;;;19.15;12.30;;;;;;;;;;5052868;28;20091;-57
2022/01/12 13:35:28;;;;;;;26.02;13.18;;;;;;;;;;5052268;28;20045;-59
2022/01/12 13:37:55;;;;;;;22.33;12.73;;;;;;;;;;5053522;28;20475;-57
2022/01/12 13:40:21;;;;;;;20.08;11.10;;;;;;;;;;5053233;28;20110;-57
2022/01/12 13:42:49;;;;;;;21.83;12.68;;;;;;;;;;5053687;28;20048;-58
2022/01/12 13:45:17;;;;;;;21.50;12.10;;;;;;;;;;5053619;28;20550;-57
2022/01/12 13:47:49;;;;;;;21.30;12.23;;;;;;;;;;5052401;28;20056;-57
2022/01/12 13:50:17;;;;;;;23.88;11.82;;;;;;;;;;5053633;28;20091;-58
2022/01/12 13:52:52;;;;;;;23.10;11.57;;;;;;;;;;5053383;28;20053;-58
2022/01/12 13:55:19;;;;;;;24.48;11.70;;;;;;;;;;5052879;28;20397;-58
2022/01/12 13:57:45;;;;;;;22.13;12.75;;;;;;;;;;5053482;28;20045;-58
2022/01/12 14:00:19;;;;;;;17.45;10.98;;;;;;;;;;5051699;28;20045;-59
2022/01/12 14:02:45;;;;;;;21.90;12.40;;;;;;;;;;5052476;28;20053;-58
2022/01/12 14:05:18;;;;;;;21.60;12.27;;;;;;;;;;5053365;28;20122;-58
2022/01/12 14:07:59;;;;;;;19.40;12.18;;;;;;;;;;5053078;28;20056;-59
2022/01/12 14:10:25;;;;;;;19.90;11.50;;;;;;;;;;5052544;28;20045;-58
2022/01/12 14:12:52;;;;;;;20.13;11.45;;;;;;;;;;5052947;28;20049;-58
2022/01/12 14:15:21;;;;;;;20.90;11.75;;;;;;;;;;5052641;28;20093;-58
2022/01/12 14:17:48;;;;;;;19.60;11.55;;;;;;;;;;5052812;28;20045;-57
2022/01/12 14:20:22;;;;;;;17.73;11.30;;;;;;;;;;5053160;28;20127;-58
2022/01/12 14:22:51;;;;;;;19.70;11.68;;;;;;;;;;5051614;28;20138;-57
2022/01/12 14:25:18;;;;;;;22.10;11.93;;;;;;;;;;5052855;28;20045;-57
2022/01/12 14:27:46;;;;;;;19.25;11.65;;;;;;;;;;5052658;28;20102;-58
2022/01/12 14:30:13;;;;;;;19.30;11.00;;;;;;;;;;5052417;28;20041;-57
2022/01/12 14:32:41;;;;;;;18.50;10.80;;;;;;;;;;5052841;28;20127;-58
2022/01/12 14:35:09;;;;;;;17.58;10.73;;;;;;;;;;5052676;28;20045;-58
2022/01/12 14:37:35;;;;;;;18.77;10.75;;;;;;;;;;5052015;28;20041;-57
2022/01/12 14:40:04;;;;;;;19.58;11.63;;;;;;;;;;5052082;28;20496;-57
2022/01/12 14:42:39;;;;;;;17.77;10.52;;;;;;;;;;5052884;28;20049;-58
2022/01/12 14:45:05;;;;;;;17.33;10.63;;;;;;;;;;5051455;28;20045;-58
2022/01/12 14:47:31;;;;;;;20.30;11.18;;;;;;;;;;5052735;28;20114;-58
2022/01/12 14:49:57;;;;;;;20.00;10.90;;;;;;;;;;5052299;28;20122;-58
2022/01/12 14:52:24;;;;;;;22.80;11.90;;;;;;;;;;5051770;28;20106;-58
2022/01/12 14:54:50;;;;;;;20.10;11.45;;;;;;;;;;5052079;28;20053;-58
2022/01/12 14:57:17;;;;;;;21.52;11.18;;;;;;;;;;5052492;28;20045;-58
2022/01/12 14:59:44;;;;;;;19.20;11.00;;;;;;;;;;5051226;28;20057;-58
2022/01/12 15:02:10;;;;;;;19.55;11.50;;;;;;;;;;5052340;28;20056;-58
2022/01/12 15:04:36;;;;;;;20.13;11.13;;;;;;;;;;5051156;28;20127;-58
2022/01/12 15:07:02;;;;;;;20.40;11.73;;;;;;;;;;5051679;28;20103;-57
2022/01/12 15:09:29;;;;;;;17.95;10.77;;;;;;;;;;5052047;28;20053;-58
2022/01/12 15:11:55;;;;;;;19.65;10.25;;;;;;;;;;5050871;28;20495;-57
2022/01/12 15:14:42;;;;;;;16.83;10.30;;;;;;;;;;5052012;28;20056;-57
2022/01/12 15:17:08;;;;;;;20.70;11.30;;;;;;;;;;5052221;28;20154;-57
2022/01/12 15:19:34;;;;;;;18.13;10.68;;;;;;;;;;5051102;28;20064;-57
2022/01/12 15:22:01;;;;;;;18.02;10.18;;;;;;;;;;5051726;28;20049;-57